sensor_id;sensor_type;location;lat;lon;timestamp;temperature;humidity
16964;DHT22;8598;50.508;10.436;2023-07-16T00:01:04;18.70;99.90
16964;DHT22;8598;50.508;10.436;2023-07-16T00:03:31;18.70;99.90
16964;DHT22;8598;50.508;10.436;2023-07-16T00:05:59;18.70;99.90
16964;DHT22;8598;50.508;10.436;2023-07-16T00:08:26;18.70;99.90
16964;DHT22;8598;50.508;10.436;2023-07-16T00:10:52;18.80;99.90
16964;DHT22;8598;50.508;10.436;2023-07-16T00:13:19;18.80;99.90
16964;DHT22;8598;50.508;10.436;2023-07-16T00:15:46;18.70;99.90
16964;DHT22;8598;50.508;10.436;2023-07-16T00:18:13;18.80;99.90
16964;DHT22;8598;50.508;10.436;2023-07-16T00:20:39;18.80;99.90
16964;DHT22;8598;50.508;10.436;2023-07-16T00:23:07;18.70;99.90
16964;DHT22;8598;50.508;10.436;2023-07-16T00:25:34;18.70;99.90
16964;DHT22;8598;50.508;10.436;2023-07-16T00:28:01;18.80;99.90
16964;DHT22;8598;50.508;10.436;2023-07-16T00:30:28;18.80;99.90
16964;DHT22;8598;50.508;10.436;2023-07-16T00:32:56;18.80;99.90
16964;DHT22;8598;50.508;10.436;2023-07-16T00:35:23;18.90;99.90
16964;DHT22;8598;50.508;10.436;2023-07-16T00:37:50;18.80;99.90
16964;DHT22;8598;50.508;10.436;2023-07-16T00:40:18;18.80;99.90
16964;DHT22;8598;50.508;10.436;2023-07-16T00:42:45;18.90;99.90
16964;DHT22;8598;50.508;10.436;2023-07-16T00:45:13;18.90;99.90
16964;DHT22;8598;50.508;10.436;2023-07-16T00:47:41;18.80;99.90
16964;DHT22;8598;50.508;10.436;2023-07-16T00:50:10;18.80;99.90
16964;DHT22;8598;50.508;10.436;2023-07-16T00:52:37;18.80;99.90
16964;DHT22;8598;50.508;10.436;2023-07-16T00:55:04;18.80;99.90
16964;DHT22;8598;50.508;10.436;2023-07-16T00:57:34;18.80;99.90
16964;DHT22;8598;50.508;10.436;2023-07-16T01:00:00;18.80;99.90
16964;DHT22;8598;50.508;10.436;2023-07-16T01:02:27;18.80;99.90
16964;DHT22;8598;50.508;10.436;2023-07-16T01:04:54;18.90;99.90
16964;DHT22;8598;50.508;10.436;2023-07-16T01:07:23;18.80;99.90
16964;DHT22;8598;50.508;10.436;2023-07-16T01:09:51;18.90;99.90
16964;DHT22;8598;50.508;10.436;2023-07-16T01:12:21;18.90;99.90
16964;DHT22;8598;50.508;10.436;2023-07-16T01:14:51;18.90;99.90
16964;DHT22;8598;50.508;10.436;2023-07-16T01:17:18;18.90;99.90
16964;DHT22;8598;50.508;10.436;2023-07-16T01:19:45;18.90;99.90
16964;DHT22;8598;50.508;10.436;2023-07-16T01:22:27;18.90;99.90
16964;DHT22;8598;50.508;10.436;2023-07-16T01:25:05;18.80;99.90
16964;DHT22;8598;50.508;10.436;2023-07-16T01:30:51;18.90;99.90
16964;DHT22;8598;50.508;10.436;2023-07-16T01:33:20;18.80;99.90
16964;DHT22;8598;50.508;10.436;2023-07-16T01:35:47;18.80;99.90
16964;DHT22;8598;50.508;10.436;2023-07-16T01:38:16;18.90;99.90
16964;DHT22;8598;50.508;10.436;2023-07-16T01:40:44;18.90;99.90
16964;DHT22;8598;50.508;10.436;2023-07-16T01:43:10;18.80;99.90
16964;DHT22;8598;50.508;10.436;2023-07-16T01:45:37;18.80;99.90
16964;DHT22;8598;50.508;10.436;2023-07-16T01:48:14;18.70;99.90
16964;DHT22;8598;50.508;10.436;2023-07-16T01:50:42;18.80;99.90
16964;DHT22;8598;50.508;10.436;2023-07-16T01:53:09;18.70;99.90
16964;DHT22;8598;50.508;10.436;2023-07-16T01:55:36;18.70;99.90
16964;DHT22;8598;50.508;10.436;2023-07-16T01:58:03;18.80;99.90
16964;DHT22;8598;50.508;10.436;2023-07-16T02:00:31;18.80;99.90
16964;DHT22;8598;50.508;10.436;2023-07-16T02:02:57;18.80;99.90
16964;DHT22;8598;50.508;10.436;2023-07-16T02:05:25;18.70;99.90
16964;DHT22;8598;50.508;10.436;2023-07-16T02:07:52;18.80;99.90
16964;DHT22;8598;50.508;10.436;2023-07-16T02:10:19;18.90;99.90
16964;DHT22;8598;50.508;10.436;2023-07-16T02:12:46;18.80;99.90
16964;DHT22;8598;50.508;10.436;2023-07-16T02:15:12;18.70;99.90
16964;DHT22;8598;50.508;10.436;2023-07-16T02:17:39;18.90;99.90
16964;DHT22;8598;50.508;10.436;2023-07-16T02:20:07;18.80;99.90
16964;DHT22;8598;50.508;10.436;2023-07-16T02:22:37;18.80;99.90
16964;DHT22;8598;50.508;10.436;2023-07-16T02:25:05;18.80;99.90
16964;DHT22;8598;50.508;10.436;2023-07-16T02:27:31;18.80;99.90
16964;DHT22;8598;50.508;10.436;2023-07-16T02:29:58;18.70;99.90
16964;DHT22;8598;50.508;10.436;2023-07-16T02:32:25;18.80;99.90
16964;DHT22;8598;50.508;10.436;2023-07-16T02:34:52;18.80;99.90
16964;DHT22;8598;50.508;10.436;2023-07-16T02:37:18;18.70;99.90
16964;DHT22;8598;50.508;10.436;2023-07-16T02:39:46;18.70;99.90
16964;DHT22;8598;50.508;10.436;2023-07-16T02:42:13;18.60;99.90
16964;DHT22;8598;50.508;10.436;2023-07-16T02:44:40;18.50;99.90
16964;DHT22;8598;50.508;10.436;2023-07-16T02:47:10;18.70;99.90
16964;DHT22;8598;50.508;10.436;2023-07-16T02:49:37;18.60;99.90
16964;DHT22;8598;50.508;10.436;2023-07-16T02:52:04;18.50;99.90
16964;DHT22;8598;50.508;10.436;2023-07-16T02:54:31;18.70;99.90
16964;DHT22;8598;50.508;10.436;2023-07-16T02:56:59;18.60;99.90
16964;DHT22;8598;50.508;10.436;2023-07-16T02:59:26;18.60;99.90
16964;DHT22;8598;50.508;10.436;2023-07-16T03:01:53;18.70;99.90
16964;DHT22;8598;50.508;10.436;2023-07-16T03:04:20;18.70;99.90
16964;DHT22;8598;50.508;10.436;2023-07-16T03:06:46;18.70;99.90
16964;DHT22;8598;50.508;10.436;2023-07-16T03:09:13;18.70;99.90
16964;DHT22;8598;50.508;10.436;2023-07-16T03:11:40;18.70;99.90
16964;DHT22;8598;50.508;10.436;2023-07-16T03:14:08;18.70;99.90
16964;DHT22;8598;50.508;10.436;2023-07-16T03:16:34;18.50;99.90
16964;DHT22;8598;50.508;10.436;2023-07-16T03:19:01;18.60;99.90
16964;DHT22;8598;50.508;10.436;2023-07-16T03:21:28;18.50;99.90
16964;DHT22;8598;50.508;10.436;2023-07-16T03:23:55;18.40;99.90
16964;DHT22;8598;50.508;10.436;2023-07-16T03:26:21;18.30;99.90
16964;DHT22;8598;50.508;10.436;2023-07-16T03:28:48;18.30;99.90
16964;DHT22;8598;50.508;10.436;2023-07-16T03:31:16;18.40;99.90
16964;DHT22;8598;50.508;10.436;2023-07-16T03:33:43;18.30;99.90
16964;DHT22;8598;50.508;10.436;2023-07-16T03:36:09;18.20;99.90
16964;DHT22;8598;50.508;10.436;2023-07-16T03:38:36;18.20;99.90
16964;DHT22;8598;50.508;10.436;2023-07-16T03:41:02;18.10;99.90
16964;DHT22;8598;50.508;10.436;2023-07-16T03:43:29;18.20;99.90
16964;DHT22;8598;50.508;10.436;2023-07-16T03:45:56;18.10;99.90
16964;DHT22;8598;50.508;10.436;2023-07-16T03:48:24;18.00;99.90
16964;DHT22;8598;50.508;10.436;2023-07-16T03:50:51;17.90;99.90
16964;DHT22;8598;50.508;10.436;2023-07-16T03:53:17;17.90;99.90
16964;DHT22;8598;50.508;10.436;2023-07-16T03:55:44;17.90;99.90
16964;DHT22;8598;50.508;10.436;2023-07-16T03:58:11;17.90;99.90
16964;DHT22;8598;50.508;10.436;2023-07-16T04:00:37;17.90;99.90
16964;DHT22;8598;50.508;10.436;2023-07-16T04:03:04;17.90;99.90
16964;DHT22;8598;50.508;10.436;2023-07-16T04:05:32;17.90;99.90
16964;DHT22;8598;50.508;10.436;2023-07-16T04:07:59;18.00;99.90
16964;DHT22;8598;50.508;10.436;2023-07-16T04:10:25;18.00;99.90
16964;DHT22;8598;50.508;10.436;2023-07-16T04:12:52;18.00;99.90
16964;DHT22;8598;50.508;10.436;2023-07-16T04:15:19;18.10;99.90
16964;DHT22;8598;50.508;10.436;2023-07-16T04:17:46;18.10;99.90
16964;DHT22;8598;50.508;10.436;2023-07-16T04:20:12;18.00;99.90
16964;DHT22;8598;50.508;10.436;2023-07-16T04:22:40;18.10;99.90
16964;DHT22;8598;50.508;10.436;2023-07-16T04:25:08;18.20;99.90
16964;DHT22;8598;50.508;10.436;2023-07-16T04:27:35;18.20;99.90
16964;DHT22;8598;50.508;10.436;2023-07-16T04:30:02;18.20;99.90
16964;DHT22;8598;50.508;10.436;2023-07-16T04:32:29;18.10;99.90
16964;DHT22;8598;50.508;10.436;2023-07-16T04:34:55;18.10;99.90
16964;DHT22;8598;50.508;10.436;2023-07-16T04:37:22;18.20;99.90
16964;DHT22;8598;50.508;10.436;2023-07-16T04:39:50;18.30;99.90
16964;DHT22;8598;50.508;10.436;2023-07-16T04:42:17;18.40;99.90
16964;DHT22;8598;50.508;10.436;2023-07-16T04:44:43;18.50;99.90
16964;DHT22;8598;50.508;10.436;2023-07-16T04:47:10;18.60;99.90
16964;DHT22;8598;50.508;10.436;2023-07-16T04:49:37;18.40;99.90
16964;DHT22;8598;50.508;10.436;2023-07-16T04:52:04;18.30;99.90
16964;DHT22;8598;50.508;10.436;2023-07-16T04:54:35;18.20;99.90
16964;DHT22;8598;50.508;10.436;2023-07-16T04:57:05;18.20;99.90
16964;DHT22;8598;50.508;10.436;2023-07-16T04:59:32;18.10;99.90
16964;DHT22;8598;50.508;10.436;2023-07-16T05:01:59;18.10;99.90
16964;DHT22;8598;50.508;10.436;2023-07-16T05:04:26;18.80;99.90
16964;DHT22;8598;50.508;10.436;2023-07-16T05:06:53;19.70;99.90
16964;DHT22;8598;50.508;10.436;2023-07-16T05:09:19;21.20;99.90
16964;DHT22;8598;50.508;10.436;2023-07-16T05:11:46;22.60;99.90
16964;DHT22;8598;50.508;10.436;2023-07-16T05:14:14;23.20;99.90
16964;DHT22;8598;50.508;10.436;2023-07-16T05:16:41;22.80;99.90
16964;DHT22;8598;50.508;10.436;2023-07-16T05:19:08;23.00;99.90
16964;DHT22;8598;50.508;10.436;2023-07-16T05:21:34;23.80;99.90
16964;DHT22;8598;50.508;10.436;2023-07-16T05:24:01;24.00;99.90
16964;DHT22;8598;50.508;10.436;2023-07-16T05:26:28;24.00;99.90
16964;DHT22;8598;50.508;10.436;2023-07-16T05:28:55;23.80;99.90
16964;DHT22;8598;50.508;10.436;2023-07-16T05:31:23;24.10;99.90
16964;DHT22;8598;50.508;10.436;2023-07-16T05:33:49;23.80;99.90
16964;DHT22;8598;50.508;10.436;2023-07-16T05:36:16;23.40;99.90
16964;DHT22;8598;50.508;10.436;2023-07-16T05:38:43;22.60;99.90
16964;DHT22;8598;50.508;10.436;2023-07-16T05:41:09;21.90;99.90
16964;DHT22;8598;50.508;10.436;2023-07-16T05:43:36;21.60;99.90
16964;DHT22;8598;50.508;10.436;2023-07-16T05:46:03;21.20;99.90
16964;DHT22;8598;50.508;10.436;2023-07-16T05:48:32;20.80;99.90
16964;DHT22;8598;50.508;10.436;2023-07-16T05:50:58;20.80;99.90
16964;DHT22;8598;50.508;10.436;2023-07-16T05:53:25;20.50;99.90
16964;DHT22;8598;50.508;10.436;2023-07-16T05:55:52;20.40;99.90
16964;DHT22;8598;50.508;10.436;2023-07-16T05:58:18;20.00;99.90
16964;DHT22;8598;50.508;10.436;2023-07-16T06:00:45;19.80;99.90
16964;DHT22;8598;50.508;10.436;2023-07-16T06:03:12;20.50;99.90
16964;DHT22;8598;50.508;10.436;2023-07-16T06:05:40;21.10;99.90
16964;DHT22;8598;50.508;10.436;2023-07-16T06:08:06;21.90;99.90
16964;DHT22;8598;50.508;10.436;2023-07-16T06:10:34;22.90;99.90
16964;DHT22;8598;50.508;10.436;2023-07-16T06:13:01;22.40;99.90
16964;DHT22;8598;50.508;10.436;2023-07-16T06:15:27;22.90;99.90
16964;DHT22;8598;50.508;10.436;2023-07-16T06:17:54;24.00;99.90
16964;DHT22;8598;50.508;10.436;2023-07-16T06:20:21;24.70;99.90
16964;DHT22;8598;50.508;10.436;2023-07-16T06:22:49;24.60;99.90
16964;DHT22;8598;50.508;10.436;2023-07-16T06:25:16;24.00;99.90
16964;DHT22;8598;50.508;10.436;2023-07-16T06:27:42;24.00;99.90
16964;DHT22;8598;50.508;10.436;2023-07-16T06:30:09;23.70;99.90
16964;DHT22;8598;50.508;10.436;2023-07-16T06:32:36;23.30;99.90
16964;DHT22;8598;50.508;10.436;2023-07-16T06:35:03;23.80;99.90
16964;DHT22;8598;50.508;10.436;2023-07-16T06:37:30;23.90;99.90
16964;DHT22;8598;50.508;10.436;2023-07-16T06:39:58;24.10;99.90
16964;DHT22;8598;50.508;10.436;2023-07-16T06:42:24;24.20;99.90
16964;DHT22;8598;50.508;10.436;2023-07-16T06:44:51;24.10;99.90
16964;DHT22;8598;50.508;10.436;2023-07-16T06:47:18;23.30;99.90
16964;DHT22;8598;50.508;10.436;2023-07-16T06:49:45;23.10;99.90
16964;DHT22;8598;50.508;10.436;2023-07-16T06:52:18;23.50;99.90
16964;DHT22;8598;50.508;10.436;2023-07-16T06:54:45;23.00;99.90
16964;DHT22;8598;50.508;10.436;2023-07-16T06:57:13;22.50;99.90
16964;DHT22;8598;50.508;10.436;2023-07-16T06:59:40;22.60;99.90
16964;DHT22;8598;50.508;10.436;2023-07-16T07:02:07;22.50;99.90
16964;DHT22;8598;50.508;10.436;2023-07-16T07:04:34;21.90;99.90
16964;DHT22;8598;50.508;10.436;2023-07-16T07:07:00;21.60;99.90
16964;DHT22;8598;50.508;10.436;2023-07-16T07:09:27;22.10;99.90
16964;DHT22;8598;50.508;10.436;2023-07-16T07:11:54;22.00;99.90
16964;DHT22;8598;50.508;10.436;2023-07-16T07:14:22;22.30;99.90
16964;DHT22;8598;50.508;10.436;2023-07-16T07:16:49;22.40;99.90
16964;DHT22;8598;50.508;10.436;2023-07-16T07:19:15;22.20;99.90
16964;DHT22;8598;50.508;10.436;2023-07-16T07:21:42;22.00;99.90
16964;DHT22;8598;50.508;10.436;2023-07-16T07:24:09;22.00;99.90
16964;DHT22;8598;50.508;10.436;2023-07-16T07:26:35;21.90;99.90
16964;DHT22;8598;50.508;10.436;2023-07-16T07:29:02;21.90;99.90
16964;DHT22;8598;50.508;10.436;2023-07-16T07:31:30;21.50;99.90
16964;DHT22;8598;50.508;10.436;2023-07-16T07:33:57;21.10;99.90
16964;DHT22;8598;50.508;10.436;2023-07-16T07:36:24;21.00;99.90
16964;DHT22;8598;50.508;10.436;2023-07-16T07:38:51;21.40;99.90
16964;DHT22;8598;50.508;10.436;2023-07-16T07:41:17;22.50;99.90
16964;DHT22;8598;50.508;10.436;2023-07-16T07:43:44;23.40;99.90
16964;DHT22;8598;50.508;10.436;2023-07-16T07:46:11;24.40;99.90
16964;DHT22;8598;50.508;10.436;2023-07-16T07:48:39;25.20;99.90
16964;DHT22;8598;50.508;10.436;2023-07-16T07:51:05;26.10;99.90
16964;DHT22;8598;50.508;10.436;2023-07-16T07:53:32;26.20;99.90
16964;DHT22;8598;50.508;10.436;2023-07-16T07:55:59;25.50;99.90
16964;DHT22;8598;50.508;10.436;2023-07-16T07:58:25;25.00;99.90
16964;DHT22;8598;50.508;10.436;2023-07-16T08:00:52;24.60;99.90
16964;DHT22;8598;50.508;10.436;2023-07-16T08:03:19;25.30;99.90
16964;DHT22;8598;50.508;10.436;2023-07-16T08:05:49;26.10;99.90
16964;DHT22;8598;50.508;10.436;2023-07-16T08:08:16;26.00;99.90
16964;DHT22;8598;50.508;10.436;2023-07-16T08:10:43;26.30;99.90
16964;DHT22;8598;50.508;10.436;2023-07-16T08:13:11;26.40;99.90
16964;DHT22;8598;50.508;10.436;2023-07-16T08:15:38;26.40;99.90
16964;DHT22;8598;50.508;10.436;2023-07-16T08:18:04;26.70;99.90
16964;DHT22;8598;50.508;10.436;2023-07-16T08:20:31;26.30;99.90
16964;DHT22;8598;50.508;10.436;2023-07-16T08:23:00;25.80;99.90
16964;DHT22;8598;50.508;10.436;2023-07-16T08:25:26;25.30;99.90
16964;DHT22;8598;50.508;10.436;2023-07-16T08:27:53;25.50;99.90
16964;DHT22;8598;50.508;10.436;2023-07-16T08:30:20;24.90;99.90
16964;DHT22;8598;50.508;10.436;2023-07-16T08:32:46;24.30;99.90
16964;DHT22;8598;50.508;10.436;2023-07-16T08:35:13;23.80;99.90
16964;DHT22;8598;50.508;10.436;2023-07-16T08:37:42;23.30;99.90
16964;DHT22;8598;50.508;10.436;2023-07-16T08:40:11;23.60;99.90
16964;DHT22;8598;50.508;10.436;2023-07-16T08:42:38;23.70;99.90
16964;DHT22;8598;50.508;10.436;2023-07-16T08:45:06;24.30;99.90
16964;DHT22;8598;50.508;10.436;2023-07-16T08:47:35;24.90;99.90
16964;DHT22;8598;50.508;10.436;2023-07-16T08:50:03;25.50;99.90
16964;DHT22;8598;50.508;10.436;2023-07-16T08:52:30;26.00;99.90
16964;DHT22;8598;50.508;10.436;2023-07-16T08:54:57;26.10;99.90
16964;DHT22;8598;50.508;10.436;2023-07-16T08:57:26;26.60;99.90
16964;DHT22;8598;50.508;10.436;2023-07-16T08:59:54;26.30;99.90
16964;DHT22;8598;50.508;10.436;2023-07-16T09:02:21;26.50;99.90
16964;DHT22;8598;50.508;10.436;2023-07-16T09:04:48;26.40;99.90
16964;DHT22;8598;50.508;10.436;2023-07-16T09:07:16;26.80;99.90
16964;DHT22;8598;50.508;10.436;2023-07-16T09:09:43;26.90;99.90
16964;DHT22;8598;50.508;10.436;2023-07-16T09:12:11;26.80;99.90
16964;DHT22;8598;50.508;10.436;2023-07-16T09:14:41;26.50;99.90
16964;DHT22;8598;50.508;10.436;2023-07-16T09:17:09;26.50;99.90
16964;DHT22;8598;50.508;10.436;2023-07-16T09:19:36;26.30;99.90
16964;DHT22;8598;50.508;10.436;2023-07-16T09:22:03;26.40;99.90
16964;DHT22;8598;50.508;10.436;2023-07-16T09:24:30;25.40;99.90
16964;DHT22;8598;50.508;10.436;2023-07-16T09:26:56;24.50;99.90
16964;DHT22;8598;50.508;10.436;2023-07-16T09:29:25;24.70;99.90
16964;DHT22;8598;50.508;10.436;2023-07-16T09:31:57;24.90;99.90
16964;DHT22;8598;50.508;10.436;2023-07-16T09:34:27;24.60;99.90
16964;DHT22;8598;50.508;10.436;2023-07-16T09:36:54;24.40;99.90
16964;DHT22;8598;50.508;10.436;2023-07-16T09:39:21;24.10;99.90
16964;DHT22;8598;50.508;10.436;2023-07-16T09:41:49;24.40;99.90
16964;DHT22;8598;50.508;10.436;2023-07-16T09:44:16;24.40;99.90
16964;DHT22;8598;50.508;10.436;2023-07-16T09:46:44;24.10;99.90
16964;DHT22;8598;50.508;10.436;2023-07-16T09:49:14;23.60;99.90
16964;DHT22;8598;50.508;10.436;2023-07-16T09:51:42;23.50;99.90
16964;DHT22;8598;50.508;10.436;2023-07-16T09:54:13;24.00;99.90
16964;DHT22;8598;50.508;10.436;2023-07-16T09:56:43;23.80;99.90
16964;DHT22;8598;50.508;10.436;2023-07-16T09:59:14;23.80;99.90
16964;DHT22;8598;50.508;10.436;2023-07-16T10:01:41;23.70;99.90
16964;DHT22;8598;50.508;10.436;2023-07-16T10:04:14;24.00;99.90
16964;DHT22;8598;50.508;10.436;2023-07-16T10:06:51;23.70;99.90
16964;DHT22;8598;50.508;10.436;2023-07-16T10:09:34;24.30;99.90
16964;DHT22;8598;50.508;10.436;2023-07-16T10:12:18;24.90;99.90
16964;DHT22;8598;50.508;10.436;2023-07-16T10:14:47;24.70;99.90
16964;DHT22;8598;50.508;10.436;2023-07-16T10:17:15;24.60;99.90
16964;DHT22;8598;50.508;10.436;2023-07-16T10:19:50;25.00;99.90
16964;DHT22;8598;50.508;10.436;2023-07-16T10:22:18;25.20;99.90
16964;DHT22;8598;50.508;10.436;2023-07-16T10:24:51;25.10;99.90
16964;DHT22;8598;50.508;10.436;2023-07-16T10:27:27;25.10;99.90
16964;DHT22;8598;50.508;10.436;2023-07-16T10:29:53;25.30;99.90
16964;DHT22;8598;50.508;10.436;2023-07-16T10:32:21;24.70;99.90
16964;DHT22;8598;50.508;10.436;2023-07-16T10:34:49;24.30;99.90
16964;DHT22;8598;50.508;10.436;2023-07-16T10:37:16;23.70;99.90
16964;DHT22;8598;50.508;10.436;2023-07-16T10:39:46;23.60;99.90
16964;DHT22;8598;50.508;10.436;2023-07-16T10:42:13;23.60;99.90
16964;DHT22;8598;50.508;10.436;2023-07-16T10:44:40;24.10;99.90
16964;DHT22;8598;50.508;10.436;2023-07-16T10:47:06;24.20;99.90
16964;DHT22;8598;50.508;10.436;2023-07-16T10:49:34;24.40;99.90
16964;DHT22;8598;50.508;10.436;2023-07-16T10:52:02;23.70;99.90
16964;DHT22;8598;50.508;10.436;2023-07-16T10:54:29;23.90;99.90
16964;DHT22;8598;50.508;10.436;2023-07-16T10:56:56;24.40;99.90
16964;DHT22;8598;50.508;10.436;2023-07-16T10:59:22;24.80;99.90
16964;DHT22;8598;50.508;10.436;2023-07-16T11:01:50;24.80;99.90
16964;DHT22;8598;50.508;10.436;2023-07-16T11:04:17;24.60;99.90
16964;DHT22;8598;50.508;10.436;2023-07-16T11:06:42;24.40;99.90
16964;DHT22;8598;50.508;10.436;2023-07-16T11:09:11;24.60;99.90
16964;DHT22;8598;50.508;10.436;2023-07-16T11:11:38;25.10;99.90
16964;DHT22;8598;50.508;10.436;2023-07-16T11:14:06;25.40;99.90
16964;DHT22;8598;50.508;10.436;2023-07-16T11:16:34;24.60;99.90
16964;DHT22;8598;50.508;10.436;2023-07-16T11:19:03;24.40;99.90
16964;DHT22;8598;50.508;10.436;2023-07-16T11:21:31;24.60;99.90
16964;DHT22;8598;50.508;10.436;2023-07-16T11:24:08;24.40;99.90
16964;DHT22;8598;50.508;10.436;2023-07-16T11:26:36;24.20;99.90
16964;DHT22;8598;50.508;10.436;2023-07-16T11:29:12;24.60;99.90
16964;DHT22;8598;50.508;10.436;2023-07-16T11:31:39;24.60;99.90
16964;DHT22;8598;50.508;10.436;2023-07-16T11:34:06;24.60;99.90
16964;DHT22;8598;50.508;10.436;2023-07-16T11:36:34;24.60;99.90
16964;DHT22;8598;50.508;10.436;2023-07-16T11:39:02;24.40;99.90
16964;DHT22;8598;50.508;10.436;2023-07-16T11:41:29;23.90;99.90
16964;DHT22;8598;50.508;10.436;2023-07-16T11:44:00;24.20;99.90
16964;DHT22;8598;50.508;10.436;2023-07-16T11:46:31;24.60;99.90
16964;DHT22;8598;50.508;10.436;2023-07-16T11:48:58;25.00;99.90
16964;DHT22;8598;50.508;10.436;2023-07-16T11:51:25;25.00;99.90
16964;DHT22;8598;50.508;10.436;2023-07-16T11:53:52;24.80;99.90
16964;DHT22;8598;50.508;10.436;2023-07-16T11:56:18;24.90;99.90
16964;DHT22;8598;50.508;10.436;2023-07-16T11:58:45;24.70;99.90
16964;DHT22;8598;50.508;10.436;2023-07-16T12:01:13;24.30;99.90
16964;DHT22;8598;50.508;10.436;2023-07-16T12:03:40;24.60;99.90
16964;DHT22;8598;50.508;10.436;2023-07-16T12:06:08;24.50;99.90
16964;DHT22;8598;50.508;10.436;2023-07-16T12:08:35;24.80;99.90
16964;DHT22;8598;50.508;10.436;2023-07-16T12:11:01;25.20;99.90
16964;DHT22;8598;50.508;10.436;2023-07-16T12:13:28;25.40;99.90
16964;DHT22;8598;50.508;10.436;2023-07-16T12:15:55;25.10;99.90
16964;DHT22;8598;50.508;10.436;2023-07-16T12:18:23;24.70;99.90
16964;DHT22;8598;50.508;10.436;2023-07-16T12:20:49;25.40;99.90
16964;DHT22;8598;50.508;10.436;2023-07-16T12:23:16;25.50;99.90
16964;DHT22;8598;50.508;10.436;2023-07-16T12:25:43;25.60;99.90
16964;DHT22;8598;50.508;10.436;2023-07-16T12:28:10;25.50;99.90
16964;DHT22;8598;50.508;10.436;2023-07-16T12:30:37;25.50;99.90
16964;DHT22;8598;50.508;10.436;2023-07-16T12:33:04;25.30;99.90
16964;DHT22;8598;50.508;10.436;2023-07-16T12:35:32;25.20;99.90
16964;DHT22;8598;50.508;10.436;2023-07-16T12:37:59;24.90;99.90
16964;DHT22;8598;50.508;10.436;2023-07-16T12:40:28;25.00;99.90
16964;DHT22;8598;50.508;10.436;2023-07-16T12:42:55;24.90;99.90
16964;DHT22;8598;50.508;10.436;2023-07-16T12:45:22;25.20;99.90
16964;DHT22;8598;50.508;10.436;2023-07-16T12:47:49;25.50;99.90
16964;DHT22;8598;50.508;10.436;2023-07-16T12:50:16;25.60;99.90
16964;DHT22;8598;50.508;10.436;2023-07-16T12:52:44;25.70;99.90
16964;DHT22;8598;50.508;10.436;2023-07-16T12:55:10;25.50;99.90
16964;DHT22;8598;50.508;10.436;2023-07-16T12:57:39;25.40;99.90
16964;DHT22;8598;50.508;10.436;2023-07-16T13:00:06;24.90;99.90
16964;DHT22;8598;50.508;10.436;2023-07-16T13:02:35;24.90;99.90
16964;DHT22;8598;50.508;10.436;2023-07-16T13:05:02;25.20;99.90
16964;DHT22;8598;50.508;10.436;2023-07-16T13:07:30;25.40;99.90
16964;DHT22;8598;50.508;10.436;2023-07-16T13:09:58;25.70;99.90
16964;DHT22;8598;50.508;10.436;2023-07-16T13:12:25;25.90;99.90
16964;DHT22;8598;50.508;10.436;2023-07-16T13:14:51;25.70;99.90
16964;DHT22;8598;50.508;10.436;2023-07-16T13:17:18;25.60;99.90
16964;DHT22;8598;50.508;10.436;2023-07-16T13:19:45;25.90;99.90
16964;DHT22;8598;50.508;10.436;2023-07-16T13:22:12;25.80;99.90
16964;DHT22;8598;50.508;10.436;2023-07-16T13:24:39;25.80;99.90
16964;DHT22;8598;50.508;10.436;2023-07-16T13:27:09;25.70;99.90
16964;DHT22;8598;50.508;10.436;2023-07-16T13:29:36;25.20;99.90
16964;DHT22;8598;50.508;10.436;2023-07-16T13:32:03;24.60;99.90
16964;DHT22;8598;50.508;10.436;2023-07-16T13:34:30;24.80;99.90
16964;DHT22;8598;50.508;10.436;2023-07-16T13:36:57;25.00;99.90
16964;DHT22;8598;50.508;10.436;2023-07-16T13:39:23;25.30;99.90
16964;DHT22;8598;50.508;10.436;2023-07-16T13:41:50;25.40;99.90
16964;DHT22;8598;50.508;10.436;2023-07-16T13:44:18;25.80;99.90
16964;DHT22;8598;50.508;10.436;2023-07-16T13:46:45;25.90;99.90
16964;DHT22;8598;50.508;10.436;2023-07-16T13:49:12;25.90;99.90
16964;DHT22;8598;50.508;10.436;2023-07-16T13:51:39;26.00;99.90
16964;DHT22;8598;50.508;10.436;2023-07-16T13:54:06;25.90;99.90
16964;DHT22;8598;50.508;10.436;2023-07-16T13:56:32;25.90;99.90
16964;DHT22;8598;50.508;10.436;2023-07-16T13:58:59;25.90;99.90
16964;DHT22;8598;50.508;10.436;2023-07-16T14:01:27;25.90;99.90
16964;DHT22;8598;50.508;10.436;2023-07-16T14:03:54;25.70;99.90
16964;DHT22;8598;50.508;10.436;2023-07-16T14:06:20;25.70;99.90
16964;DHT22;8598;50.508;10.436;2023-07-16T14:08:47;25.50;99.90
16964;DHT22;8598;50.508;10.436;2023-07-16T14:11:14;25.10;99.90
16964;DHT22;8598;50.508;10.436;2023-07-16T14:13:43;25.20;99.90
16964;DHT22;8598;50.508;10.436;2023-07-16T14:16:10;25.20;99.90
16964;DHT22;8598;50.508;10.436;2023-07-16T14:18:38;25.20;99.90
16964;DHT22;8598;50.508;10.436;2023-07-16T14:21:05;25.20;99.90
16964;DHT22;8598;50.508;10.436;2023-07-16T14:23:31;25.60;99.90
16964;DHT22;8598;50.508;10.436;2023-07-16T14:25:58;25.80;99.90
16964;DHT22;8598;50.508;10.436;2023-07-16T14:28:25;25.90;99.90
16964;DHT22;8598;50.508;10.436;2023-07-16T14:30:51;25.90;99.90
16964;DHT22;8598;50.508;10.436;2023-07-16T14:33:18;25.90;99.90
16964;DHT22;8598;50.508;10.436;2023-07-16T14:35:46;25.60;99.90
16964;DHT22;8598;50.508;10.436;2023-07-16T14:38:13;25.60;99.90
16964;DHT22;8598;50.508;10.436;2023-07-16T14:40:40;25.70;99.90
16964;DHT22;8598;50.508;10.436;2023-07-16T14:43:07;25.50;99.90
16964;DHT22;8598;50.508;10.436;2023-07-16T14:45:34;25.50;99.90
16964;DHT22;8598;50.508;10.436;2023-07-16T14:48:01;25.50;99.90
16964;DHT22;8598;50.508;10.436;2023-07-16T14:50:29;25.60;99.90
16964;DHT22;8598;50.508;10.436;2023-07-16T14:52:57;25.90;99.90
16964;DHT22;8598;50.508;10.436;2023-07-16T14:55:24;26.00;99.90
16964;DHT22;8598;50.508;10.436;2023-07-16T14:57:51;25.80;99.90
16964;DHT22;8598;50.508;10.436;2023-07-16T15:00:18;25.70;99.90
16964;DHT22;8598;50.508;10.436;2023-07-16T15:02:44;25.60;99.90
16964;DHT22;8598;50.508;10.436;2023-07-16T15:05:11;25.70;99.90
16964;DHT22;8598;50.508;10.436;2023-07-16T15:07:38;25.70;99.90
16964;DHT22;8598;50.508;10.436;2023-07-16T15:10:07;25.80;99.90
16964;DHT22;8598;50.508;10.436;2023-07-16T15:12:34;25.50;99.90
16964;DHT22;8598;50.508;10.436;2023-07-16T15:15:01;25.60;99.90
16964;DHT22;8598;50.508;10.436;2023-07-16T15:17:28;25.50;99.90
16964;DHT22;8598;50.508;10.436;2023-07-16T15:19:55;25.50;99.90
16964;DHT22;8598;50.508;10.436;2023-07-16T15:22:22;25.40;99.90
16964;DHT22;8598;50.508;10.436;2023-07-16T15:24:48;25.20;99.90
16964;DHT22;8598;50.508;10.436;2023-07-16T15:27:17;25.20;99.90
16964;DHT22;8598;50.508;10.436;2023-07-16T15:29:43;25.50;99.90
16964;DHT22;8598;50.508;10.436;2023-07-16T15:32:10;25.40;99.90
16964;DHT22;8598;50.508;10.436;2023-07-16T15:34:37;25.40;99.90